Time;durP1;ratioP1;P1;durP2;ratioP2;P2;SDS_P1;SDS_P2;PMS_P1;PMS_P2;Temp;Humidity;BMP_temperature;BMP_pressure;BME280_temperature;BME280_humidity;BME280_pressure;Samples;Min_cycle;Max_cycle;Signal;HPM_P1;HPM_P2
2023/03/31 00:00:37;;;;;;;;;;;;;;;;;;6134281;23;19924;-86
2023/03/31 00:03:08;;;;;;;;;;;;;;;;;;6158936;23;19920;-87
2023/03/31 00:05:38;;;;;;;;;;;;;;;;;;6134687;23;19927;-90
2023/03/31 00:08:16;;;;;;;;;;;;;;;;;;6135464;23;19924;-88
2023/03/31 00:10:45;;;;;;;;;;;;;;;;;;6135169;23;19920;-87
2023/03/31 00:13:12;;;;;;;;;;;;;;;;;;6159382;23;19921;-87
2023/03/31 00:16:00;;;;;;;;;;;;;;;;;;6160639;23;19920;-88
2023/03/31 00:18:28;;;;;;;;;;;;;;;;;;6136619;23;19927;-87
2023/03/31 00:21:01;;;;;;;;;;;;;;;;;;6162552;23;19924;-87
2023/03/31 00:23:28;;;;;;;;;;;;;;;;;;6159956;23;19921;-86
2023/03/31 00:25:57;;;;;;;;;;;;;;;;;;6134364;23;19934;-87
2023/03/31 00:28:24;;;;;;;;;;;;;;;;;;6133990;23;19922;-90
2023/03/31 00:30:54;;;;;;;;;;;;;;;;;;6134376;23;19920;-87
2023/03/31 00:33:21;;;;;;;;;;;;;;;;;;6158318;23;19927;-87
2023/03/31 00:35:51;;;;;;;;;;;;;;;;;;6134783;23;19925;-87
2023/03/31 00:38:23;;;;;;;;;;;;;;;;;;6195375;23;19927;-89
2023/03/31 00:40:54;;;;;;;;;;;;;;;;;;6169930;23;19928;-88
2023/03/31 00:43:28;;;;;;;;;;;;;;;;;;6185207;23;20379;-90
2023/03/31 00:45:56;;;;;;;;;;;;;;;;;;6134255;23;19958;-86
2023/03/31 00:48:29;;;;;;;;;;;;;;;;;;6135062;23;19932;-88
2023/03/31 00:50:56;;;;;;;;;;;;;;;;;;6159053;23;19924;-87
2023/03/31 00:53:25;;;;;;;;;;;;;;;;;;6135696;23;19927;-87
2023/03/31 00:55:53;;;;;;;;;;;;;;;;;;6143796;23;19920;-88
2023/03/31 00:58:20;;;;;;;;;;;;;;;;;;6168871;23;19920;-87
2023/03/31 01:00:51;;;;;;;;;;;;;;;;;;6177924;23;19927;-87
2023/03/31 01:03:21;;;;;;;;;;;;;;;;;;6143962;23;19920;-87
2023/03/31 01:05:52;;;;;;;;;;;;;;;;;;6188659;23;19927;-86
2023/03/31 01:08:23;;;;;;;;;;;;;;;;;;6161062;23;19920;-88
2023/03/31 01:10:53;;;;;;;;;;;;;;;;;;6135091;23;19921;-87
2023/03/31 01:13:20;;;;;;;;;;;;;;;;;;6158522;23;19920;-90
2023/03/31 01:15:50;;;;;;;;;;;;;;;;;;6159078;23;19920;-87
2023/03/31 01:18:20;;;;;;;;;;;;;;;;;;6163530;23;19920;-87
2023/03/31 01:20:55;;;;;;;;;;;;;;;;;;6144461;23;19920;-87
2023/03/31 01:23:26;;;;;;;;;;;;;;;;;;6159321;23;19927;-89
2023/03/31 01:26:00;;;;;;;;;;;;;;;;;;6134258;23;19931;-86
2023/03/31 01:28:30;;;;;;;;;;;;;;;;;;6158460;23;19924;-89
2023/03/31 01:31:20;;;;;;;;;;;;;;;;;;6159570;23;19928;-88
2023/03/31 01:34:05;;;;;;;;;;;;;;;;;;6134934;23;20464;-87
2023/03/31 01:36:47;;;;;;;;;;;;;;;;;;6194703;23;20348;-88
2023/03/31 01:39:25;;;;;;;;;;;;;;;;;;6158326;23;20450;-88
2023/03/31 01:42:06;;;;;;;;;;;;;;;;;;6133456;23;19928;-88
2023/03/31 01:44:37;;;;;;;;;;;;;;;;;;6191441;23;19920;-87
2023/03/31 01:47:06;;;;;;;;;;;;;;;;;;6183099;23;20344;-90
2023/03/31 01:49:38;;;;;;;;;;;;;;;;;;6160526;23;20352;-89
2023/03/31 01:52:14;;;;;;;;;;;;;;;;;;6133445;23;19921;-89
2023/03/31 01:54:42;;;;;;;;;;;;;;;;;;6162898;23;20359;-86
2023/03/31 01:57:13;;;;;;;;;;;;;;;;;;6132933;23;19924;-89
2023/03/31 01:59:41;;;;;;;;;;;;;;;;;;6161114;23;19927;-88
2023/03/31 02:02:11;;;;;;;;;;;;;;;;;;6161407;23;19943;-88
2023/03/31 02:04:41;;;;;;;;;;;;;;;;;;6160878;23;19927;-88
2023/03/31 02:07:09;;;;;;;;;;;;;;;;;;6135321;23;19955;-88
2023/03/31 02:09:37;;;;;;;;;;;;;;;;;;6134944;23;19927;-88
2023/03/31 02:12:06;;;;;;;;;;;;;;;;;;6135348;23;19920;-88
2023/03/31 02:14:35;;;;;;;;;;;;;;;;;;6135786;23;19931;-89
2023/03/31 02:17:02;;;;;;;;;;;;;;;;;;6160738;23;19943;-90
2023/03/31 02:19:33;;;;;;;;;;;;;;;;;;6158589;23;19924;-87
2023/03/31 02:22:00;;;;;;;;;;;;;;;;;;6169604;23;19920;-90
2023/03/31 02:24:29;;;;;;;;;;;;;;;;;;6159104;23;20319;-88
2023/03/31 02:26:58;;;;;;;;;;;;;;;;;;6159304;23;19924;-87
2023/03/31 02:29:28;;;;;;;;;;;;;;;;;;6135097;23;19924;-87
2023/03/31 02:31:58;;;;;;;;;;;;;;;;;;6133937;23;19921;-87
2023/03/31 02:34:25;;;;;;;;;;;;;;;;;;6160236;23;20273;-89
2023/03/31 02:36:52;;;;;;;;;;;;;;;;;;6135403;23;19931;-89
2023/03/31 02:39:20;;;;;;;;;;;;;;;;;;6160166;23;19924;-87
2023/03/31 02:41:47;;;;;;;;;;;;;;;;;;6160334;23;19924;-86
2023/03/31 02:44:17;;;;;;;;;;;;;;;;;;6160162;23;19920;-87
2023/03/31 02:46:45;;;;;;;;;;;;;;;;;;6185685;23;19927;-88
2023/03/31 02:49:14;;;;;;;;;;;;;;;;;;6134787;23;19920;-89
2023/03/31 02:51:54;;;;;;;;;;;;;;;;;;6159853;23;19924;-88
2023/03/31 02:54:32;;;;;;;;;;;;;;;;;;6158657;23;19920;-89
2023/03/31 02:57:15;;;;;;;;;;;;;;;;;;6160073;23;20344;-89
2023/03/31 02:59:56;;;;;;;;;;;;;;;;;;6134732;23;19920;-89
2023/03/31 03:02:24;;;;;;;;;;;;;;;;;;6135607;23;19920;-87
2023/03/31 03:05:07;;;;;;;;;;;;;;;;;;6161799;23;20264;-87
2023/03/31 03:07:36;;;;;;;;;;;;;;;;;;6134524;23;19924;-88
2023/03/31 03:10:07;;;;;;;;;;;;;;;;;;6134396;23;19927;-88
2023/03/31 03:12:38;;;;;;;;;;;;;;;;;;6135539;23;20339;-88
2023/03/31 03:15:06;;;;;;;;;;;;;;;;;;6160176;23;19928;-89
2023/03/31 03:17:37;;;;;;;;;;;;;;;;;;6159930;23;19921;-89
2023/03/31 03:20:08;;;;;;;;;;;;;;;;;;6158140;23;20271;-87
2023/03/31 03:22:38;;;;;;;;;;;;;;;;;;6159383;23;19924;-87
2023/03/31 03:25:09;;;;;;;;;;;;;;;;;;6135057;23;19932;-90
2023/03/31 03:27:36;;;;;;;;;;;;;;;;;;6158063;23;19968;-87
2023/03/31 03:30:07;;;;;;;;;;;;;;;;;;6188747;23;19920;-88
2023/03/31 03:32:34;;;;;;;;;;;;;;;;;;6160772;23;20370;-87
2023/03/31 03:35:04;;;;;;;;;;;;;;;;;;6160396;23;19931;-87
2023/03/31 03:37:33;;;;;;;;;;;;;;;;;;6161181;23;20272;-88
2023/03/31 03:40:01;;;;;;;;;;;;;;;;;;6172688;23;19920;-86
2023/03/31 03:42:30;;;;;;;;;;;;;;;;;;6166841;23;19934;-89
2023/03/31 03:44:57;;;;;;;;;;;;;;;;;;6166070;23;19935;-88
2023/03/31 03:47:26;;;;;;;;;;;;;;;;;;6162292;23;19978;-89
2023/03/31 03:49:54;;;;;;;;;;;;;;;;;;6137226;23;19920;-88
2023/03/31 03:52:21;;;;;;;;;;;;;;;;;;6159973;23;20352;-88
2023/03/31 03:54:50;;;;;;;;;;;;;;;;;;6208100;23;19927;-89
2023/03/31 03:57:17;;;;;;;;;;;;;;;;;;6217675;23;19919;-90
2023/03/31 03:59:44;;;;;;;;;;;;;;;;;;6255257;23;19926;-90
2023/03/31 04:02:11;;;;;;;;;;;;;;;;;;6218350;23;19927;-89
2023/03/31 04:04:38;;;;;;;;;;;;;;;;;;6229989;23;20367;-89
2023/03/31 04:07:05;;;;;;;;;;;;;;;;;;6188477;23;19924;-90
2023/03/31 04:09:32;;;;;;;;;;;;;;;;;;6162570;23;19920;-90
2023/03/31 04:12:00;;;;;;;;;;;;;;;;;;6214226;23;19924;-90
2023/03/31 04:14:28;;;;;;;;;;;;;;;;;;6186051;23;19924;-90
2023/03/31 04:16:57;;;;;;;;;;;;;;;;;;6187733;23;20272;-90
2023/03/31 04:19:26;;;;;;;;;;;;;;;;;;6187600;23;19920;-90
2023/03/31 04:21:57;;;;;;;;;;;;;;;;;;6214154;23;19920;-89
2023/03/31 04:24:29;;;;;;;;;;;;;;;;;;6220424;23;19927;-89
2023/03/31 04:26:56;;;;;;;;;;;;;;;;;;6223830;23;20415;-90
2023/03/31 04:29:26;;;;;;;;;;;;;;;;;;6212471;23;19920;-88
2023/03/31 04:31:57;;;;;;;;;;;;;;;;;;6214684;23;20011;-89
2023/03/31 04:34:25;;;;;;;;;;;;;;;;;;6221028;23;19943;-89
2023/03/31 04:36:54;;;;;;;;;;;;;;;;;;6185851;23;19927;-89
2023/03/31 04:39:25;;;;;;;;;;;;;;;;;;6162887;23;19920;-89
2023/03/31 04:41:52;;;;;;;;;;;;;;;;;;6224585;23;20245;-89
2023/03/31 04:44:19;;;;;;;;;;;;;;;;;;6214264;23;20259;-89
2023/03/31 04:46:48;;;;;;;;;;;;;;;;;;6213184;23;19926;-90
2023/03/31 04:49:15;;;;;;;;;;;;;;;;;;6214146;23;19920;-89
2023/03/31 04:51:43;;;;;;;;;;;;;;;;;;6188222;23;20348;-89
2023/03/31 04:54:10;;;;;;;;;;;;;;;;;;6221462;23;19920;-89
2023/03/31 04:56:37;;;;;;;;;;;;;;;;;;6221373;23;19924;-89
2023/03/31 04:59:04;;;;;;;;;;;;;;;;;;6211990;23;20009;-89
2023/03/31 05:01:34;;;;;;;;;;;;;;;;;;6214396;23;19920;-89
2023/03/31 05:04:03;;;;;;;;;;;;;;;;;;6222452;23;20264;-89
2023/03/31 05:06:30;;;;;;;;;;;;;;;;;;6187891;23;19923;-89
2023/03/31 05:08:57;;;;;;;;;;;;;;;;;;6186624;23;19928;-89
2023/03/31 05:11:24;;;;;;;;;;;;;;;;;;6186454;23;19920;-89
2023/03/31 05:13:51;;;;;;;;;;;;;;;;;;6212649;23;19919;-89
2023/03/31 05:16:18;;;;;;;;;;;;;;;;;;6213826;23;19935;-89
2023/03/31 05:18:46;;;;;;;;;;;;;;;;;;6213815;23;19919;-89
2023/03/31 05:21:15;;;;;;;;;;;;;;;;;;6214810;23;19920;-89
2023/03/31 05:23:42;;;;;;;;;;;;;;;;;;6224381;23;19927;-89
2023/03/31 05:26:10;;;;;;;;;;;;;;;;;;6187791;23;19927;-89
2023/03/31 05:28:37;;;;;;;;;;;;;;;;;;6186821;23;19930;-88
2023/03/31 05:31:04;;;;;;;;;;;;;;;;;;6223658;23;19927;-89
2023/03/31 05:33:31;;;;;;;;;;;;;;;;;;6187333;23;19927;-89
2023/03/31 05:35:59;;;;;;;;;;;;;;;;;;6213370;23;19931;-89
2023/03/31 05:38:30;;;;;;;;;;;;;;;;;;6162752;23;19927;-89
2023/03/31 05:40:57;;;;;;;;;;;;;;;;;;6213313;23;20328;-89
2023/03/31 05:43:24;;;;;;;;;;;;;;;;;;6187771;23;19927;-89
2023/03/31 09:25:41;;;;;;;;;;;;;;;;;;6154275;23;19921;-89
2023/03/31 09:28:11;;;;;;;;;;;;;;;;;;6153632;23;20333;-92
2023/03/31 09:30:38;;;;;;;;;;;;;;;;;;6128609;23;19920;-89
2023/03/31 09:33:10;;;;;;;;;;;;;;;;;;6102308;23;19927;-90
2023/03/31 09:35:37;;;;;;;;;;;;;;;;;;6155639;23;19927;-90
2023/03/31 09:38:04;;;;;;;;;;;;;;;;;;6153463;23;19924;-90
2023/03/31 09:40:31;;;;;;;;;;;;;;;;;;6153767;23;19928;-91
2023/03/31 09:43:00;;;;;;;;;;;;;;;;;;6125198;23;19925;-90
2023/03/31 09:45:29;;;;;;;;;;;;;;;;;;6127515;23;19928;-90
2023/03/31 09:47:57;;;;;;;;;;;;;;;;;;6127524;23;19943;-90
2023/03/31 09:50:25;;;;;;;;;;;;;;;;;;6127448;23;19932;-90
2023/03/31 09:59:36;;;;;;;;;;;;;;;;;;6156890;23;19924;-88
2023/03/31 10:02:16;;;;;;;;;;;;;;;;;;6129474;23;19928;-89
2023/03/31 10:04:46;;;;;;;;;;;;;;;;;;6128100;23;19935;-87
2023/03/31 10:07:13;;;;;;;;;;;;;;;;;;6128055;23;19921;-86
2023/03/31 10:09:42;;;;;;;;;;;;;;;;;;6104643;23;19936;-88
2023/03/31 10:12:19;;;;;;;;;;;;;;;;;;6104474;23;19921;-87
2023/03/31 10:18:34;;;;;;;;;;;;;;;;;;6112778;23;19921;-87
2023/03/31 10:21:05;;;;;;;;;;;;;;;;;;6131609;23;20457;-88
2023/03/31 10:23:33;;;;;;;;;;;;;;;;;;6107897;23;19931;-88
2023/03/31 10:26:01;;;;;;;;;;;;;;;;;;6131369;23;19928;-87
2023/03/31 10:28:31;;;;;;;;;;;;;;;;;;6107566;23;19931;-87
2023/03/31 10:31:01;;;;;;;;;;;;;;;;;;6132035;23;19925;-88
2023/03/31 10:33:30;;;;;;;;;;;;;;;;;;6107314;23;19943;-88
2023/03/31 10:35:59;;;;;;;;;;;;;;;;;;6109796;23;19924;-89
2023/03/31 10:38:27;;;;;;;;;;;;;;;;;;6141420;23;19952;-87
2023/03/31 10:40:57;;;;;;;;;;;;;;;;;;6114580;23;19927;-87
2023/03/31 10:43:28;;;;;;;;;;;;;;;;;;6134222;23;19920;-88
2023/03/31 10:45:55;;;;;;;;;;;;;;;;;;6133598;23;20256;-90
2023/03/31 10:48:26;;;;;;;;;;;;;;;;;;6158828;23;19921;-89
2023/03/31 10:50:53;;;;;;;;;;;;;;;;;;6136450;23;19930;-86
2023/03/31 10:53:24;;;;;;;;;;;;;;;;;;6104770;23;19921;-88
2023/03/31 10:55:59;;;;;;;;;;;;;;;;;;6131079;23;20241;-87
2023/03/31 10:58:33;;;;;;;;;;;;;;;;;;6107907;23;19920;-88
2023/03/31 11:01:05;;;;;;;;;;;;;;;;;;6131388;23;20268;-88
2023/03/31 11:03:45;;;;;;;;;;;;;;;;;;6106560;23;19921;-87
2023/03/31 11:06:20;;;;;;;;;;;;;;;;;;6132154;23;19927;-89
2023/03/31 11:08:56;;;;;;;;;;;;;;;;;;6143932;23;19920;-87
2023/03/31 11:11:30;;;;;;;;;;;;;;;;;;6108838;23;19921;-88
2023/03/31 11:14:03;;;;;;;;;;;;;;;;;;6132928;23;20352;-88
2023/03/31 11:16:36;;;;;;;;;;;;;;;;;;6130439;23;19931;-89
2023/03/31 11:19:10;;;;;;;;;;;;;;;;;;6134462;23;19927;-86
2023/03/31 11:21:40;;;;;;;;;;;;;;;;;;6109670;23;19921;-88
2023/03/31 11:24:14;;;;;;;;;;;;;;;;;;6132892;23;19920;-86
2023/03/31 11:26:47;;;;;;;;;;;;;;;;;;6137281;23;19929;-89
2023/03/31 11:29:18;;;;;;;;;;;;;;;;;;6114118;23;19920;-88
2023/03/31 11:31:48;;;;;;;;;;;;;;;;;;6085497;23;19921;-86
2023/03/31 11:34:20;;;;;;;;;;;;;;;;;;6133160;23;19943;-88
2023/03/31 11:37:17;;;;;;;;;;;;;;;;;;6107593;23;20344;-87
2023/03/31 11:39:57;;;;;;;;;;;;;;;;;;6109052;23;19921;-90
2023/03/31 11:42:27;;;;;;;;;;;;;;;;;;6110218;23;19931;-88
2023/03/31 11:44:58;;;;;;;;;;;;;;;;;;6109076;23;19931;-89
2023/03/31 11:47:25;;;;;;;;;;;;;;;;;;6109985;23;19927;-90
2023/03/31 11:49:54;;;;;;;;;;;;;;;;;;6133152;23;19931;-88
2023/03/31 11:52:25;;;;;;;;;;;;;;;;;;6108528;23;19921;-87
2023/03/31 11:54:55;;;;;;;;;;;;;;;;;;6108082;23;20388;-89
2023/03/31 11:57:24;;;;;;;;;;;;;;;;;;6107350;23;20379;-88
2023/03/31 11:59:56;;;;;;;;;;;;;;;;;;6158590;23;19920;-88
2023/03/31 12:05:28;;;;;;;;;;;;;;;;;;6121477;23;19921;-88
2023/03/31 12:07:59;;;;;;;;;;;;;;;;;;6133037;23;19931;-88
2023/03/31 12:10:32;;;;;;;;;;;;;;;;;;6111195;23;19920;-87
2023/03/31 12:13:00;;;;;;;;;;;;;;;;;;6134571;23;19920;-87
2023/03/31 12:15:27;;;;;;;;;;;;;;;;;;6133257;23;19920;-88
2023/03/31 12:17:59;;;;;;;;;;;;;;;;;;6130308;23;19921;-88
2023/03/31 12:20:36;;;;;;;;;;;;;;;;;;6104557;23;19920;-87
2023/03/31 12:23:07;;;;;;;;;;;;;;;;;;6104844;23;19921;-87
2023/03/31 12:25:43;;;;;;;;;;;;;;;;;;6105125;23;19920;-89
2023/03/31 12:28:19;;;;;;;;;;;;;;;;;;6103980;23;19927;-87
2023/03/31 12:30:50;;;;;;;;;;;;;;;;;;6105909;23;19928;-88
2023/03/31 12:33:23;;;;;;;;;;;;;;;;;;6106132;23;19921;-89
2023/03/31 12:35:59;;;;;;;;;;;;;;;;;;6107844;23;19932;-88
2023/03/31 12:38:44;;;;;;;;;;;;;;;;;;6109406;23;19921;-87
2023/03/31 12:41:16;;;;;;;;;;;;;;;;;;6101122;23;19927;-88
2023/03/31 12:43:59;;;;;;;;;;;;;;;;;;6106406;23;19927;-87
2023/03/31 12:46:47;;;;;;;;;;;;;;;;;;6105764;23;19928;-87
2023/03/31 12:49:27;;;;;;;;;;;;;;;;;;6105655;23;19925;-89
2023/03/31 12:52:22;;;;;;;;;;;;;;;;;;6129385;23;19920;-89
2023/03/31 12:55:16;;;;;;;;;;;;;;;;;;6107662;23;19925;-88
2023/03/31 12:57:45;;;;;;;;;;;;;;;;;;6131523;23;19921;-89
2023/03/31 13:00:24;;;;;;;;;;;;;;;;;;6107230;23;19921;-90
2023/03/31 13:03:27;;;;;;;;;;;;;;;;;;6106835;23;19921;-89
2023/03/31 13:05:56;;;;;;;;;;;;;;;;;;6130060;23;19920;-89
2023/03/31 13:08:49;;;;;;;;;;;;;;;;;;6107610;23;19921;-88
2023/03/31 13:11:16;;;;;;;;;;;;;;;;;;6104107;23;19928;-89
2023/03/31 13:13:47;;;;;;;;;;;;;;;;;;6105785;23;20120;-89
2023/03/31 13:16:20;;;;;;;;;;;;;;;;;;6108291;23;19925;-88
2023/03/31 13:18:51;;;;;;;;;;;;;;;;;;6131259;23;19927;-87
2023/03/31 13:21:26;;;;;;;;;;;;;;;;;;6125708;23;19928;-87
2023/03/31 13:24:06;;;;;;;;;;;;;;;;;;6106800;23;19928;-88
2023/03/31 13:26:45;;;;;;;;;;;;;;;;;;6105459;23;19920;-87
2023/03/31 13:29:23;;;;;;;;;;;;;;;;;;6104879;23;19944;-87
2023/03/31 13:32:09;;;;;;;;;;;;;;;;;;6106679;23;19928;-87
2023/03/31 13:34:38;;;;;;;;;;;;;;;;;;6115505;23;19927;-88
2023/03/31 13:37:13;;;;;;;;;;;;;;;;;;6114469;23;20348;-88
2023/03/31 13:39:44;;;;;;;;;;;;;;;;;;6108245;23;19925;-88
2023/03/31 13:42:23;;;;;;;;;;;;;;;;;;6107345;23;19920;-88
2023/03/31 13:44:57;;;;;;;;;;;;;;;;;;6131684;23;19928;-87
2023/03/31 13:47:30;;;;;;;;;;;;;;;;;;6105193;23;19940;-90
2023/03/31 13:50:09;;;;;;;;;;;;;;;;;;6119884;23;19920;-89
2023/03/31 13:52:38;;;;;;;;;;;;;;;;;;6106725;23;19920;-88
2023/03/31 13:55:20;;;;;;;;;;;;;;;;;;6133325;23;19920;-87
2023/03/31 13:57:57;;;;;;;;;;;;;;;;;;6083509;23;19924;-88
2023/03/31 14:00:27;;;;;;;;;;;;;;;;;;6105651;23;19925;-87
2023/03/31 14:02:59;;;;;;;;;;;;;;;;;;6140363;23;20360;-88
2023/03/31 14:05:29;;;;;;;;;;;;;;;;;;6132254;23;19925;-88
2023/03/31 14:07:59;;;;;;;;;;;;;;;;;;6108590;23;19927;-88
2023/03/31 14:10:27;;;;;;;;;;;;;;;;;;6106597;23;19925;-88
2023/03/31 14:13:04;;;;;;;;;;;;;;;;;;6107183;23;19920;-88
2023/03/31 14:15:34;;;;;;;;;;;;;;;;;;6131419;23;20335;-87
2023/03/31 14:18:02;;;;;;;;;;;;;;;;;;6107780;23;19921;-91
2023/03/31 14:20:35;;;;;;;;;;;;;;;;;;6133131;23;19928;-88
2023/03/31 14:23:09;;;;;;;;;;;;;;;;;;6131724;23;19921;-88
2023/03/31 14:25:51;;;;;;;;;;;;;;;;;;6109468;23;19931;-90
2023/03/31 14:28:26;;;;;;;;;;;;;;;;;;6130384;23;19921;-90
2023/03/31 14:31:01;;;;;;;;;;;;;;;;;;6131530;23;19931;-89
2023/03/31 14:33:33;;;;;;;;;;;;;;;;;;6107825;23;19920;-87
2023/03/31 14:36:04;;;;;;;;;;;;;;;;;;6109109;23;19929;-88
2023/03/31 14:38:34;;;;;;;;;;;;;;;;;;6158506;23;20374;-89
2023/03/31 14:41:04;;;;;;;;;;;;;;;;;;6133142;23;19965;-88
2023/03/31 14:43:35;;;;;;;;;;;;;;;;;;6132805;23;19925;-88
2023/03/31 14:46:10;;;;;;;;;;;;;;;;;;6107699;23;22006;-87
2023/03/31 14:48:43;;;;;;;;;;;;;;;;;;6108047;23;19921;-89
2023/03/31 14:51:11;;;;;;;;;;;;;;;;;;6134918;23;19920;-90
2023/03/31 14:53:42;;;;;;;;;;;;;;;;;;6132092;23;19925;-91
2023/03/31 14:56:11;;;;;;;;;;;;;;;;;;6133148;23;19925;-89
2023/03/31 14:58:42;;;;;;;;;;;;;;;;;;6109017;23;19920;-89
2023/03/31 15:01:13;;;;;;;;;;;;;;;;;;6108467;23;19921;-87
2023/03/31 15:03:41;;;;;;;;;;;;;;;;;;6130914;23;20284;-88
2023/03/31 15:06:08;;;;;;;;;;;;;;;;;;6107066;23;19927;-89
2023/03/31 15:08:38;;;;;;;;;;;;;;;;;;6131983;23;19930;-88
2023/03/31 15:11:09;;;;;;;;;;;;;;;;;;6143574;23;19925;-87
2023/03/31 15:13:38;;;;;;;;;;;;;;;;;;6104886;23;19928;-89
2023/03/31 15:16:23;;;;;;;;;;;;;;;;;;6106278;23;20280;-88
2023/03/31 15:18:55;;;;;;;;;;;;;;;;;;6106747;23;19921;-90
2023/03/31 15:21:23;;;;;;;;;;;;;;;;;;6105568;23;19920;-88
2023/03/31 15:23:51;;;;;;;;;;;;;;;;;;6107337;23;19920;-89
2023/03/31 15:26:18;;;;;;;;;;;;;;;;;;6129204;23;19921;-87
2023/03/31 15:28:50;;;;;;;;;;;;;;;;;;6104343;23;19925;-87
2023/03/31 15:31:20;;;;;;;;;;;;;;;;;;6128518;23;19921;-88
2023/03/31 15:33:48;;;;;;;;;;;;;;;;;;6104544;23;19920;-89
2023/03/31 15:36:30;;;;;;;;;;;;;;;;;;6129201;23;19927;-87
2023/03/31 15:39:15;;;;;;;;;;;;;;;;;;6109373;23;19924;-87
2023/03/31 15:41:43;;;;;;;;;;;;;;;;;;6151723;23;20272;-90
2023/03/31 15:44:30;;;;;;;;;;;;;;;;;;6106591;23;19920;-88
2023/03/31 15:47:00;;;;;;;;;;;;;;;;;;6106725;23;19932;-90
2023/03/31 15:49:29;;;;;;;;;;;;;;;;;;6131567;23;19931;-88
2023/03/31 15:52:01;;;;;;;;;;;;;;;;;;6106272;23;19925;-89
2023/03/31 16:02:56;;;;;;;;;;;;;;;;;;6152483;23;19927;-88
2023/03/31 16:05:28;;;;;;;;;;;;;;;;;;6124332;23;19928;-87
2023/03/31 16:08:09;;;;;;;;;;;;;;;;;;6126771;23;19927;-87
2023/03/31 16:10:36;;;;;;;;;;;;;;;;;;6127038;23;19920;-89
2023/03/31 16:13:04;;;;;;;;;;;;;;;;;;6127197;23;19925;-91
2023/03/31 16:15:32;;;;;;;;;;;;;;;;;;6126480;23;19921;-91
2023/03/31 16:17:59;;;;;;;;;;;;;;;;;;6101526;23;19921;-91
2023/03/31 16:20:26;;;;;;;;;;;;;;;;;;6152595;23;19928;-90
2023/03/31 16:22:54;;;;;;;;;;;;;;;;;;6150338;23;19925;-91
2023/03/31 16:25:23;;;;;;;;;;;;;;;;;;6151674;23;19921;-90
2023/03/31 16:27:51;;;;;;;;;;;;;;;;;;6126879;23;19920;-91
2023/03/31 16:30:19;;;;;;;;;;;;;;;;;;6152626;23;19928;-91
2023/03/31 16:32:59;;;;;;;;;;;;;;;;;;6128119;23;19920;-91
2023/03/31 16:35:30;;;;;;;;;;;;;;;;;;6102675;23;19924;-91
2023/03/31 16:37:57;;;;;;;;;;;;;;;;;;6103388;23;20349;-91
2023/03/31 16:43:42;;;;;;;;;;;;;;;;;;6154515;23;19935;-90
2023/03/31 16:46:09;;;;;;;;;;;;;;;;;;6154251;23;20361;-91
2023/03/31 16:48:36;;;;;;;;;;;;;;;;;;6127413;23;19927;-91
2023/03/31 16:51:03;;;;;;;;;;;;;;;;;;6128192;23;19924;-90
2023/03/31 16:53:32;;;;;;;;;;;;;;;;;;6163652;23;20260;-89
2023/03/31 16:55:59;;;;;;;;;;;;;;;;;;6126221;23;19921;-90
2023/03/31 16:58:27;;;;;;;;;;;;;;;;;;6125708;23;19921;-91
2023/03/31 17:00:56;;;;;;;;;;;;;;;;;;6103251;23;19927;-91
2023/03/31 17:03:23;;;;;;;;;;;;;;;;;;6126868;23;19931;-91
2023/03/31 17:05:52;;;;;;;;;;;;;;;;;;6126144;23;19927;-92
2023/03/31 17:08:21;;;;;;;;;;;;;;;;;;6103425;23;19955;-91
2023/03/31 17:10:50;;;;;;;;;;;;;;;;;;6151445;23;19921;-88
2023/03/31 17:13:18;;;;;;;;;;;;;;;;;;6152162;23;19928;-90
2023/03/31 17:15:45;;;;;;;;;;;;;;;;;;6154012;23;19927;-91
2023/03/31 17:18:13;;;;;;;;;;;;;;;;;;6127714;23;19928;-91
2023/03/31 17:20:40;;;;;;;;;;;;;;;;;;6127384;23;20253;-91
2023/03/31 17:23:09;;;;;;;;;;;;;;;;;;6127663;23;20368;-90
2023/03/31 17:25:38;;;;;;;;;;;;;;;;;;6152803;23;19936;-90
2023/03/31 17:28:05;;;;;;;;;;;;;;;;;;6126721;23;20237;-90
2023/03/31 17:30:35;;;;;;;;;;;;;;;;;;6128969;23;19925;-90
2023/03/31 17:33:02;;;;;;;;;;;;;;;;;;6154570;23;19920;-90
2023/03/31 17:35:31;;;;;;;;;;;;;;;;;;6129551;23;19924;-90
2023/03/31 17:37:58;;;;;;;;;;;;;;;;;;6154068;23;20341;-89
2023/03/31 17:40:25;;;;;;;;;;;;;;;;;;6129265;23;19947;-91
2023/03/31 17:42:55;;;;;;;;;;;;;;;;;;6154857;23;20417;-90
2023/03/31 17:45:24;;;;;;;;;;;;;;;;;;6130885;23;19936;-91
2023/03/31 17:47:51;;;;;;;;;;;;;;;;;;6128875;23;20254;-90
2023/03/31 17:50:20;;;;;;;;;;;;;;;;;;6156681;23;19928;-91
2023/03/31 17:52:49;;;;;;;;;;;;;;;;;;6156366;23;20167;-91
2023/03/31 17:55:16;;;;;;;;;;;;;;;;;;6130477;23;19921;-90
2023/03/31 17:57:43;;;;;;;;;;;;;;;;;;6155956;23;19921;-90
2023/03/31 18:00:13;;;;;;;;;;;;;;;;;;6103837;23;20269;-91
2023/03/31 18:02:41;;;;;;;;;;;;;;;;;;6160201;23;19928;-89
2023/03/31 18:05:08;;;;;;;;;;;;;;;;;;6155040;23;19920;-91
2023/03/31 18:07:35;;;;;;;;;;;;;;;;;;6163789;23;19928;-90
2023/03/31 18:10:07;;;;;;;;;;;;;;;;;;6163315;23;20000;-91
2023/03/31 18:12:40;;;;;;;;;;;;;;;;;;6129430;23;19928;-90
2023/03/31 18:15:09;;;;;;;;;;;;;;;;;;6104058;23;20180;-90
2023/03/31 18:17:36;;;;;;;;;;;;;;;;;;6128822;23;20340;-90
2023/03/31 18:20:04;;;;;;;;;;;;;;;;;;6164067;23;19920;-90
2023/03/31 18:22:31;;;;;;;;;;;;;;;;;;6128823;23;19928;-90
2023/03/31 18:25:01;;;;;;;;;;;;;;;;;;6153903;23;19936;-90
2023/03/31 18:27:32;;;;;;;;;;;;;;;;;;6128867;23;19920;-90
2023/03/31 18:29:59;;;;;;;;;;;;;;;;;;6154961;23;19928;-90
2023/03/31 18:32:26;;;;;;;;;;;;;;;;;;6130040;23;19925;-90
2023/03/31 18:34:53;;;;;;;;;;;;;;;;;;6155966;23;19931;-90
2023/03/31 18:37:20;;;;;;;;;;;;;;;;;;6155794;23;20341;-91
2023/03/31 18:39:47;;;;;;;;;;;;;;;;;;6155563;23;19920;-90
2023/03/31 18:42:14;;;;;;;;;;;;;;;;;;6158333;23;20145;-90
2023/03/31 18:44:45;;;;;;;;;;;;;;;;;;6130670;23;19921;-90
2023/03/31 18:47:12;;;;;;;;;;;;;;;;;;6130616;23;19940;-90
2023/03/31 18:49:42;;;;;;;;;;;;;;;;;;6129366;23;19920;-90
2023/03/31 18:52:09;;;;;;;;;;;;;;;;;;6157210;23;19921;-90
2023/03/31 18:54:36;;;;;;;;;;;;;;;;;;6130389;23;19927;-90
2023/03/31 18:57:03;;;;;;;;;;;;;;;;;;6131300;23;19920;-90
2023/03/31 18:59:30;;;;;;;;;;;;;;;;;;6155723;23;19921;-90
2023/03/31 19:01:58;;;;;;;;;;;;;;;;;;6105493;23;19924;-90
2023/03/31 19:04:25;;;;;;;;;;;;;;;;;;6157148;23;19943;-90
2023/03/31 19:06:54;;;;;;;;;;;;;;;;;;6132068;23;19978;-88
2023/03/31 19:09:24;;;;;;;;;;;;;;;;;;6154682;23;19936;-89
2023/03/31 19:11:52;;;;;;;;;;;;;;;;;;6152549;23;19921;-88
2023/03/31 19:14:21;;;;;;;;;;;;;;;;;;6130583;23;19920;-88
2023/03/31 19:16:50;;;;;;;;;;;;;;;;;;6129338;23;19928;-88
2023/03/31 19:19:19;;;;;;;;;;;;;;;;;;6165369;23;19924;-88
2023/03/31 19:21:47;;;;;;;;;;;;;;;;;;6129803;23;20192;-88
2023/03/31 19:24:14;;;;;;;;;;;;;;;;;;6166077;23;19928;-88
2023/03/31 19:26:43;;;;;;;;;;;;;;;;;;6131595;23;19921;-87
2023/03/31 19:29:12;;;;;;;;;;;;;;;;;;6129723;23;19928;-88
2023/03/31 19:31:40;;;;;;;;;;;;;;;;;;6154598;23;19920;-87
2023/03/31 19:34:10;;;;;;;;;;;;;;;;;;6154643;23;19944;-88
2023/03/31 19:36:39;;;;;;;;;;;;;;;;;;6128398;23;19928;-87
2023/03/31 19:39:06;;;;;;;;;;;;;;;;;;6155233;23;19920;-87
2023/03/31 19:41:35;;;;;;;;;;;;;;;;;;6155300;23;19924;-88
2023/03/31 19:44:04;;;;;;;;;;;;;;;;;;6137746;23;19965;-88
2023/03/31 19:46:34;;;;;;;;;;;;;;;;;;6129066;23;19924;-87
2023/03/31 19:49:01;;;;;;;;;;;;;;;;;;6126179;23;19921;-88
2023/03/31 19:51:32;;;;;;;;;;;;;;;;;;6128777;23;20257;-88
2023/03/31 19:54:02;;;;;;;;;;;;;;;;;;6153382;23;19921;-88
2023/03/31 19:56:31;;;;;;;;;;;;;;;;;;6128271;23;19925;-88
2023/03/31 19:59:00;;;;;;;;;;;;;;;;;;6138870;23;19928;-88
2023/03/31 20:01:27;;;;;;;;;;;;;;;;;;6154067;23;20261;-88
2023/03/31 20:03:54;;;;;;;;;;;;;;;;;;6127738;23;19920;-88
2023/03/31 20:06:22;;;;;;;;;;;;;;;;;;6156646;23;19943;-88
2023/03/31 20:08:51;;;;;;;;;;;;;;;;;;6129412;23;19927;-88
2023/03/31 20:11:20;;;;;;;;;;;;;;;;;;6127457;23;19920;-88
2023/03/31 20:13:47;;;;;;;;;;;;;;;;;;6154258;23;19921;-88
2023/03/31 20:16:16;;;;;;;;;;;;;;;;;;6129369;23;19924;-88
2023/03/31 20:18:46;;;;;;;;;;;;;;;;;;6154737;23;19921;-88
2023/03/31 20:21:14;;;;;;;;;;;;;;;;;;6128459;23;19920;-88
2023/03/31 20:23:41;;;;;;;;;;;;;;;;;;6127916;23;19921;-88
2023/03/31 20:26:12;;;;;;;;;;;;;;;;;;6128159;23;19932;-88
2023/03/31 20:28:40;;;;;;;;;;;;;;;;;;6164468;23;19921;-87
2023/03/31 20:31:11;;;;;;;;;;;;;;;;;;6127174;23;19979;-88
2023/03/31 20:33:40;;;;;;;;;;;;;;;;;;6163216;23;19928;-88
2023/03/31 20:36:10;;;;;;;;;;;;;;;;;;6125773;23;19932;-88
2023/03/31 20:38:43;;;;;;;;;;;;;;;;;;6139182;23;19928;-87
2023/03/31 20:41:12;;;;;;;;;;;;;;;;;;6128299;23;19928;-88
2023/03/31 20:43:44;;;;;;;;;;;;;;;;;;6151747;23;19921;-88
2023/03/31 20:46:11;;;;;;;;;;;;;;;;;;6153113;23;19921;-88
2023/03/31 20:48:38;;;;;;;;;;;;;;;;;;6128800;23;19921;-88
2023/03/31 20:51:08;;;;;;;;;;;;;;;;;;6126810;23;20345;-88
2023/03/31 20:53:40;;;;;;;;;;;;;;;;;;6137039;23;19925;-88
2023/03/31 20:56:07;;;;;;;;;;;;;;;;;;6155953;23;20360;-88
2023/03/31 20:58:34;;;;;;;;;;;;;;;;;;6127327;23;19925;-88
2023/03/31 21:01:02;;;;;;;;;;;;;;;;;;6128322;23;19927;-88
2023/03/31 21:03:29;;;;;;;;;;;;;;;;;;6152621;23;19921;-88
2023/03/31 21:05:56;;;;;;;;;;;;;;;;;;6128093;23;19944;-88
2023/03/31 21:08:23;;;;;;;;;;;;;;;;;;6128046;23;19921;-88
2023/03/31 21:10:52;;;;;;;;;;;;;;;;;;6103674;23;19928;-88
2023/03/31 21:13:19;;;;;;;;;;;;;;;;;;6127149;23;20253;-88